^^
Station Historical Data
 
Daily Summary for July 24, 2017 Units:  English    Metric   Both
« Previous Day
Next Day »
Daily Weekly Monthly Yearly Custom
  Current: High: Low: Average:
Temperature: 69.7 °F 75.2 °F 69.7 °F 73.6 °F
Dew Point: 53.8 °F 54.0 °F 52.4 °F 53.2 °F
Humidity: 57% 57% 45% 49%
Wind Speed: 0.0mph 11.5mph 0.0mph 6.8mph
Wind Gust: 0.0mph 11.5mph - -
WindCalm - - SSE
Pressure: 29.83 in 29.84 in 29.81 in -
Precipitation: 0.00 in      
Historical Graphs
 
 
Tabular Data for July 24, 2017
Time Temperature Dew Point Pressure Wind Wind Speed Wind Gust Humidity Rainfall Rate (Hourly) solar Conditions
00:04 75.2 °F 52.4 °F 29.84 in SSE 6.9 mph 6.9 mph 45% 0.00 in WeatherDisplay:10.37 W/m2 CLR
00:09 75.2 °F 52.4 °F 29.84 in SSE 5.8 mph 5.8 mph 45% 0.00 in WeatherDisplay:10.37 W/m2 CLR
00:14 75.1 °F 52.9 °F 29.84 in SE 5.8 mph 5.8 mph 46% 0.00 in WeatherDisplay:10.37 W/m2 CLR
00:19 75.0 °F 52.8 °F 29.84 in SSE 9.2 mph 9.2 mph 46% 0.00 in WeatherDisplay:10.37 W/m2 CLR
00:24 74.9 °F 52.7 °F 29.83 in South 6.9 mph 6.9 mph 46% 0.00 in WeatherDisplay:10.37 W/m2 CLR
00:29 74.8 °F 52.6 °F 29.83 in South 6.9 mph 6.9 mph 46% 0.00 in WeatherDisplay:10.37 W/m2 CLR
00:31 74.7 °F 53.1 °F 29.83 in South 10.4 mph 10.4 mph 47% 0.00 in WeatherDisplay:10.37 W/m2 CLR
00:36 74.7 °F 53.1 °F 29.83 in South 9.2 mph 9.2 mph 47% 0.00 in WeatherDisplay:10.37 W/m2 CLR
00:41 74.6 °F 53.0 °F 29.83 in SSE 9.2 mph 9.2 mph 47% 0.00 in WeatherDisplay:10.37 W/m2 CLR
00:46 74.4 °F 52.9 °F 29.83 in South 8.1 mph 8.1 mph 47% 0.00 in WeatherDisplay:10.37 W/m2 CLR
00:51 74.2 °F 52.7 °F 29.83 in SE 8.0 mph 8.0 mph 47% 0.00 in WeatherDisplay:10.37 W/m2 CLR
00:56 74.0 °F 53.1 °F 29.83 in SSE 5.8 mph 5.8 mph 48% 0.00 in WeatherDisplay:10.37 W/m2 CLR
01:01 73.8 °F 52.9 °F 29.84 in South 5.8 mph 5.8 mph 48% 0.00 in WeatherDisplay:10.37 W/m2 CLR
01:06 73.7 °F 52.8 °F 29.84 in South 8.0 mph 8.0 mph 48% 0.00 in WeatherDisplay:10.37 W/m2 CLR
01:11 73.7 °F 52.8 °F 29.83 in SSE 10.4 mph 10.4 mph 48% 0.00 in WeatherDisplay:10.37 W/m2 CLR
01:16 73.7 °F 52.8 °F 29.83 in SSE 9.2 mph 9.2 mph 48% 0.00 in WeatherDisplay:10.37 W/m2 CLR
01:21 73.8 °F 53.4 °F 29.82 in SE 10.4 mph 10.4 mph 49% 0.00 in WeatherDisplay:10.37 W/m2 CLR
01:26 73.7 °F 53.3 °F 29.82 in SSE 9.2 mph 9.2 mph 49% 0.00 in WeatherDisplay:10.37 W/m2 CLR
01:31 73.6 °F 53.3 °F 29.82 in SSE 10.4 mph 10.4 mph 49% 0.00 in WeatherDisplay:10.37 W/m2 CLR
01:36 73.5 °F 53.2 °F 29.82 in SSW 9.2 mph 9.2 mph 49% 0.00 in WeatherDisplay:10.37 W/m2 CLR
01:41 73.6 °F 53.3 °F 29.82 in SE 11.5 mph 11.5 mph 49% 0.00 in WeatherDisplay:10.37 W/m2 CLR
01:46 73.7 °F 53.3 °F 29.82 in SSW 6.9 mph 6.9 mph 49% 0.00 in WeatherDisplay:10.37 W/m2 CLR
01:51 73.6 °F 53.8 °F 29.82 in SE 6.9 mph 6.9 mph 50% 0.00 in WeatherDisplay:10.37 W/m2 CLR
01:56 73.5 °F 53.7 °F 29.82 in SSE 6.9 mph 6.9 mph 50% 0.00 in WeatherDisplay:10.37 W/m2 CLR
02:01 73.3 °F 53.5 °F 29.82 in SSE 10.4 mph 10.4 mph 50% 0.00 in WeatherDisplay:10.37 W/m2 CLR
02:06 73.2 °F 53.4 °F 29.82 in SE 4.6 mph 4.6 mph 50% 0.00 in WeatherDisplay:10.37 W/m2 CLR
02:11 72.9 °F 53.7 °F 29.82 in South 1.2 mph 1.2 mph 51% 0.00 in WeatherDisplay:10.37 W/m2 CLR
02:16 72.3 °F 53.7 °F 29.82 in West 2.3 mph 2.3 mph 52% 0.00 in WeatherDisplay:10.37 W/m2 CLR
02:21 71.6 °F 53.6 °F 29.81 in Calm     53% 0.00 in WeatherDisplay:10.37 W/m2 CLR
02:26 70.9 °F 53.4 °F 29.82 in SW 1.2 mph   54% 0.00 in WeatherDisplay:10.37 W/m2 CLR
02:31 70.4 °F 54.0 °F 29.82 in Calm     56% 0.00 in WeatherDisplay:10.37 W/m2 CLR
02:36 69.7 °F 53.8 °F 29.83 in Calm     57% 0.00 in WeatherDisplay:10.37 W/m2 CLR
Windsor Co Weather
Compliments of Weather Underground - 1.5 mb